createdAt,value
2019-04-14T00:02:25.155Z,4.65
2019-04-14T00:04:55.563Z,4.03
2019-04-14T00:07:25.410Z,4.22
2019-04-14T00:09:54.208Z,3.15
2019-04-14T00:12:23.026Z,3.17
2019-04-14T00:14:51.551Z,2.75
2019-04-14T00:17:19.891Z,4.30
2019-04-14T00:19:50.950Z,4.78
2019-04-14T00:22:20.328Z,3.73
2019-04-14T00:24:48.969Z,6.75
2019-04-14T00:27:17.359Z,4.75
2019-04-14T00:29:45.806Z,5.50
2019-04-14T00:32:14.370Z,7.70
2019-04-14T00:34:59.375Z,5.83
2019-04-14T00:37:29.499Z,3.15
2019-04-14T00:40:15.499Z,6.08
2019-04-14T00:42:54.425Z,3.77
2019-04-14T00:45:39.404Z,3.17
2019-04-14T00:48:09.291Z,5.27
2019-04-14T00:50:32.012Z,4.58
2019-04-14T00:53:01.210Z,4.60
2019-04-14T00:55:29.633Z,4.20
2019-04-14T00:57:59.451Z,3.47
2019-04-14T01:00:27.929Z,4.40
2019-04-14T01:02:56.330Z,4.40
2019-04-14T01:05:24.826Z,4.30
2019-04-14T01:07:54.393Z,3.02
2019-04-14T01:10:23.570Z,2.62
2019-04-14T01:12:52.006Z,6.87
2019-04-14T01:15:20.300Z,5.80
2019-04-14T01:17:48.660Z,3.58
2019-04-14T01:20:17.040Z,5.97
2019-04-14T01:22:46.608Z,3.08
2019-04-14T01:25:15.145Z,6.37
2019-04-14T01:27:43.551Z,3.47
2019-04-14T01:30:11.910Z,5.28
2019-04-14T01:32:41.455Z,4.87
2019-04-14T01:35:09.873Z,3.80
2019-04-14T01:37:38.262Z,7.08
2019-04-14T01:40:07.535Z,5.40
2019-04-14T01:42:36.036Z,4.58
2019-04-14T01:45:06.118Z,3.60
2019-04-14T01:47:35.547Z,5.10
2019-04-14T01:50:04.189Z,4.83
2019-04-14T01:52:46.090Z,3.33
2019-04-14T01:58:16.721Z,4.53
2019-04-14T02:00:46.778Z,7.78
2019-04-14T02:03:15.194Z,4.00
2019-04-14T02:05:43.568Z,6.30
2019-04-14T02:08:13.188Z,4.35
2019-04-14T02:10:41.842Z,7.87
2019-04-14T02:13:11.237Z,3.83
2019-04-14T02:15:39.873Z,3.33
2019-04-14T02:18:08.243Z,4.60
2019-04-14T02:20:36.704Z,4.20
2019-04-14T02:23:06.159Z,3.65
2019-04-14T02:25:35.924Z,3.67
2019-04-14T02:28:05.265Z,3.62
2019-04-14T02:30:41.726Z,6.12
2019-04-14T02:33:33.777Z,3.75
2019-04-14T02:38:51.175Z,4.60
2019-04-14T02:41:09.281Z,4.75
2019-04-14T02:48:44.257Z,4.12
2019-04-14T02:56:10.016Z,5.65
2019-04-14T02:58:48.427Z,5.05
2019-04-14T03:01:19.679Z,5.83
2019-04-14T03:03:41.000Z,5.17
2019-04-14T03:06:08.414Z,5.20
2019-04-14T03:08:45.316Z,5.40
2019-04-14T03:11:10.597Z,5.30
2019-04-14T03:13:49.582Z,4.70
2019-04-14T03:16:15.291Z,4.95
2019-04-14T03:18:58.265Z,5.08
2019-04-14T03:21:34.659Z,4.17
2019-04-14T03:24:34.194Z,2.95
2019-04-14T03:27:00.071Z,4.12
2019-04-14T03:29:37.150Z,4.47
2019-04-14T03:32:31.162Z,5.20
2019-04-14T03:34:51.967Z,5.80
2019-04-14T03:37:39.505Z,5.40
2019-04-14T03:39:46.101Z,4.17
2019-04-14T03:42:21.423Z,4.78
2019-04-14T03:47:21.673Z,6.45
2019-04-14T03:50:00.038Z,6.75
2019-04-14T03:52:18.472Z,6.97
2019-04-14T03:54:39.988Z,5.08
2019-04-14T03:56:51.519Z,5.65
2019-04-14T03:59:19.992Z,6.57
2019-04-14T04:01:48.324Z,6.78
2019-04-14T04:04:16.763Z,6.00
2019-04-14T04:06:51.241Z,4.50
2019-04-14T04:09:21.474Z,6.33
2019-04-14T04:11:50.009Z,8.33
2019-04-14T04:14:18.421Z,7.25
2019-04-14T04:17:05.733Z,7.72
2019-04-14T04:19:42.634Z,5.53
2019-04-14T04:22:21.595Z,5.92
2019-04-14T04:24:58.388Z,5.95
2019-04-14T04:27:40.370Z,8.63
2019-04-14T04:30:10.329Z,5.85
2019-04-14T04:32:43.308Z,7.03
2019-04-14T04:35:13.375Z,6.57
2019-04-14T04:38:00.813Z,5.08
2019-04-14T04:40:31.774Z,5.63
2019-04-14T04:43:01.174Z,4.47
2019-04-14T04:45:29.994Z,6.08
2019-04-14T04:47:58.510Z,5.83
2019-04-14T04:50:28.174Z,6.12
2019-04-14T04:52:56.574Z,11.50
2019-04-14T04:55:26.271Z,7.17
2019-04-14T04:57:54.762Z,5.00
2019-04-14T05:00:24.379Z,5.10
2019-04-14T05:02:52.785Z,5.70
2019-04-14T05:05:58.034Z,6.95
2019-04-14T05:08:26.539Z,4.37
2019-04-14T05:10:58.928Z,4.05
2019-04-14T05:13:31.149Z,4.75
2019-04-14T05:18:29.024Z,6.45
2019-04-14T05:20:57.486Z,7.95
2019-04-14T05:23:25.886Z,4.20
2019-04-14T05:25:56.067Z,7.65
2019-04-14T05:28:24.730Z,6.03
2019-04-14T05:30:53.045Z,10.15
2019-04-14T05:33:21.442Z,6.75
2019-04-14T05:35:50.909Z,8.40
2019-04-14T05:38:19.480Z,5.87
2019-04-14T05:40:47.849Z,6.47
2019-04-14T05:43:27.994Z,5.13
2019-04-14T05:45:48.085Z,6.65
2019-04-14T05:48:18.162Z,4.47
2019-04-14T05:50:49.030Z,4.78
2019-04-14T05:53:17.534Z,6.65
2019-04-14T05:55:46.034Z,5.35
2019-04-14T05:58:14.485Z,4.47
2019-04-14T06:00:43.952Z,4.67
2019-04-14T06:03:15.067Z,3.47
2019-04-14T06:05:43.484Z,5.17
2019-04-14T06:08:11.851Z,5.37
2019-04-14T06:10:40.771Z,6.03
2019-04-14T06:13:11.676Z,3.90
2019-04-14T06:15:39.423Z,3.40
2019-04-14T06:18:07.746Z,4.05
2019-04-14T06:20:36.118Z,5.23
2019-04-14T06:23:04.501Z,5.67
2019-04-14T06:25:32.932Z,4.45
2019-04-14T06:28:01.385Z,4.33
2019-04-14T06:30:46.587Z,4.45
2019-04-14T06:33:25.562Z,6.60
2019-04-14T06:36:17.787Z,3.17
2019-04-14T06:38:47.818Z,2.67
2019-04-14T06:41:17.676Z,3.37
2019-04-14T06:43:49.121Z,3.83
2019-04-14T06:46:17.813Z,2.60
2019-04-14T06:48:46.188Z,2.85
2019-04-14T06:51:14.578Z,2.75
2019-04-14T06:53:43.011Z,2.47
2019-04-14T06:56:11.465Z,4.37
2019-04-14T06:58:39.949Z,2.83
2019-04-14T07:01:08.293Z,1.72
2019-04-14T07:03:36.671Z,3.67
2019-04-14T07:06:05.050Z,2.98
2019-04-14T07:08:34.172Z,1.90
2019-04-14T07:11:04.263Z,2.55
2019-04-14T07:13:32.624Z,2.70
2019-04-14T07:16:01.053Z,2.05
2019-04-14T07:18:29.414Z,3.02
2019-04-14T07:20:57.811Z,2.50
2019-04-14T07:23:27.853Z,2.40
2019-04-14T07:25:56.212Z,4.27
2019-04-14T07:28:27.627Z,1.98
2019-04-14T07:30:57.738Z,2.12
2019-04-14T07:33:45.648Z,3.60
2019-04-14T07:36:24.627Z,2.80
2019-04-14T07:38:57.391Z,3.98
2019-04-14T07:41:30.207Z,3.77
2019-04-14T07:44:15.206Z,2.42
2019-04-14T07:46:45.534Z,3.10
2019-04-14T07:49:32.881Z,2.95
2019-04-14T07:52:18.935Z,2.40
2019-04-14T07:54:57.692Z,3.00
2019-04-14T07:57:33.745Z,3.40
2019-04-14T08:00:09.569Z,2.60
2019-04-14T08:02:39.581Z,2.90
2019-04-14T08:05:09.645Z,2.45
2019-04-14T08:07:38.098Z,1.80
2019-04-14T08:10:09.540Z,4.28
2019-04-14T08:12:37.989Z,2.40
2019-04-14T08:15:08.056Z,7.87
2019-04-14T08:17:36.435Z,2.12
2019-04-14T08:20:06.235Z,4.42
2019-04-14T08:22:34.734Z,3.12
2019-04-14T08:25:03.434Z,2.95
2019-04-14T08:27:31.850Z,2.37
2019-04-14T08:30:00.280Z,1.98
2019-04-14T08:32:28.784Z,4.72
2019-04-14T08:34:57.273Z,3.40
2019-04-14T08:37:25.638Z,3.05
2019-04-14T08:39:54.139Z,4.50
2019-04-14T08:42:27.212Z,2.10
2019-04-14T08:44:57.761Z,7.20
2019-04-14T08:47:43.537Z,2.35
2019-04-14T08:50:13.605Z,2.70
2019-04-14T08:53:01.700Z,2.33
2019-04-14T08:55:31.737Z,3.75
2019-04-14T08:58:04.089Z,2.85
2019-04-14T09:00:39.204Z,2.20
2019-04-14T09:03:17.988Z,3.02
2019-04-14T09:06:04.488Z,4.53
2019-04-14T09:08:53.472Z,2.87
2019-04-14T09:11:26.958Z,1.50
2019-04-14T09:13:55.346Z,2.60
2019-04-14T09:16:24.270Z,2.87
2019-04-14T09:18:53.744Z,6.75
2019-04-14T09:21:22.326Z,2.23
2019-04-14T09:23:50.711Z,2.67
2019-04-14T09:26:19.168Z,2.05
2019-04-14T09:28:47.552Z,2.97
2019-04-14T09:31:15.848Z,2.47
2019-04-14T09:33:44.247Z,2.10
2019-04-14T09:36:14.309Z,4.10
2019-04-14T09:38:45.391Z,4.67
2019-04-14T09:41:13.809Z,2.17
2019-04-14T09:43:42.286Z,4.53
2019-04-14T09:46:10.733Z,3.70
2019-04-14T09:48:39.093Z,3.72
2019-04-14T09:51:07.478Z,3.20
2019-04-14T09:53:35.854Z,2.72
2019-04-14T09:56:04.234Z,3.60
2019-04-14T09:58:35.190Z,2.90
2019-04-14T10:03:44.441Z,2.55
2019-04-14T10:06:13.024Z,3.00
2019-04-14T10:08:41.382Z,4.15
2019-04-14T10:11:09.874Z,5.05
2019-04-14T10:13:41.056Z,2.40
2019-04-14T10:16:09.429Z,2.93
2019-04-14T10:18:37.796Z,4.35
2019-04-14T10:21:16.883Z,2.15
2019-04-14T10:23:36.150Z,3.58
2019-04-14T10:26:04.594Z,2.90
2019-04-14T10:28:33.549Z,3.65
2019-04-14T10:31:02.023Z,3.77
2019-04-14T10:33:32.093Z,3.22
2019-04-14T10:36:00.589Z,2.95
2019-04-14T10:38:30.514Z,3.27
2019-04-14T10:40:58.959Z,3.15
2019-04-14T10:43:27.324Z,2.72
2019-04-14T10:45:55.829Z,3.72
2019-04-14T10:48:24.258Z,4.62
2019-04-14T10:50:55.980Z,5.30
2019-04-14T10:53:24.430Z,2.83
2019-04-14T10:55:52.795Z,2.30
2019-04-14T10:58:21.254Z,2.33
2019-04-14T11:00:49.786Z,2.55
2019-04-14T11:03:18.193Z,2.52
2019-04-14T11:06:04.502Z,2.42
2019-04-14T11:08:32.963Z,2.60
2019-04-14T11:11:01.330Z,4.40
2019-04-14T11:13:32.535Z,3.30
2019-04-14T11:16:00.953Z,2.05
2019-04-14T11:18:31.253Z,2.25
2019-04-14T11:21:03.615Z,2.33
2019-04-14T11:23:32.163Z,2.60
2019-04-14T11:26:01.785Z,2.80
2019-04-14T11:28:30.131Z,2.52
2019-04-14T11:31:09.919Z,3.70
2019-04-14T11:33:55.924Z,2.83
2019-04-14T11:36:42.429Z,3.75
2019-04-14T11:39:12.763Z,2.65
2019-04-14T11:41:43.493Z,3.27
2019-04-14T11:44:13.475Z,3.02
2019-04-14T11:46:41.918Z,2.95
2019-04-14T11:49:10.301Z,4.72
2019-04-14T11:51:38.725Z,1.75
2019-04-14T11:54:07.156Z,2.57
2019-04-14T11:56:35.457Z,2.30
2019-04-14T11:59:03.920Z,3.72
2019-04-14T12:01:46.164Z,6.12
2019-04-14T12:04:25.003Z,1.70
2019-04-14T12:07:03.785Z,2.22
2019-04-14T12:09:36.484Z,2.23
2019-04-14T12:12:06.798Z,3.55
2019-04-14T12:14:35.142Z,5.00
2019-04-14T12:17:03.846Z,1.82
2019-04-14T12:19:32.237Z,1.62
2019-04-14T12:22:08.062Z,3.02
2019-04-14T12:24:30.796Z,3.20
2019-04-14T12:26:59.194Z,1.55
2019-04-14T12:29:28.292Z,1.52
2019-04-14T12:31:57.434Z,3.95
2019-04-14T12:34:25.881Z,4.03
2019-04-14T12:36:54.245Z,2.07
2019-04-14T12:39:27.978Z,2.52
2019-04-14T12:42:14.591Z,1.80
2019-04-14T12:45:02.108Z,2.92
2019-04-14T12:47:39.862Z,2.27
2019-04-14T12:50:24.264Z,3.17
2019-04-14T12:52:52.738Z,1.82
2019-04-14T12:55:21.190Z,2.50
2019-04-14T12:57:51.264Z,2.30
2019-04-14T13:00:27.684Z,2.83
2019-04-14T13:02:56.468Z,2.35
2019-04-14T13:05:24.831Z,2.02
2019-04-14T13:07:53.222Z,1.67
2019-04-14T13:10:21.590Z,2.85
2019-04-14T13:12:50.090Z,1.98
2019-04-14T13:15:18.542Z,1.60
2019-04-14T13:17:46.843Z,2.10
2019-04-14T13:20:16.006Z,2.35
2019-04-14T13:22:44.459Z,1.70
2019-04-14T13:25:15.789Z,2.83
2019-04-14T13:27:44.285Z,1.77
2019-04-14T13:30:14.381Z,2.90
2019-04-14T13:32:42.761Z,1.80
2019-04-14T13:35:11.535Z,2.03
2019-04-14T13:37:43.011Z,1.70
2019-04-14T13:40:11.407Z,3.60
2019-04-14T13:42:39.841Z,2.80
2019-04-14T13:45:08.226Z,2.15
2019-04-14T13:47:36.682Z,2.52
2019-04-14T13:50:06.723Z,1.80
2019-04-14T13:52:46.754Z,3.10
2019-04-14T13:55:09.838Z,1.77
2019-04-14T13:57:38.238Z,1.97
2019-04-14T14:00:13.946Z,2.70
2019-04-14T14:02:42.980Z,1.93
2019-04-14T14:05:11.410Z,3.00
2019-04-14T14:07:39.867Z,1.62
2019-04-14T14:10:08.505Z,1.77
2019-04-14T14:12:41.412Z,2.05
2019-04-14T14:15:14.247Z,1.32
2019-04-14T14:17:44.262Z,1.42
2019-04-14T14:20:26.393Z,2.22
2019-04-14T14:22:59.825Z,2.13
2019-04-14T14:25:35.718Z,1.40
2019-04-14T14:28:04.155Z,2.27
2019-04-14T14:30:34.205Z,1.92
2019-04-14T14:33:02.641Z,1.82
2019-04-14T14:35:31.089Z,2.15
2019-04-14T14:37:59.405Z,1.35
2019-04-14T14:40:27.843Z,1.85
2019-04-14T14:42:56.270Z,3.55
2019-04-14T14:45:28.778Z,1.45
2019-04-14T14:47:58.790Z,1.62
2019-04-14T14:50:45.007Z,2.90
2019-04-14T14:53:13.377Z,1.50
2019-04-14T14:55:50.771Z,1.52
2019-04-14T14:58:31.138Z,1.60
2019-04-14T15:01:00.699Z,2.77
2019-04-14T15:03:35.979Z,1.25
2019-04-14T15:06:04.796Z,2.40
2019-04-14T15:08:33.101Z,1.40
2019-04-14T15:11:07.182Z,1.30
2019-04-14T15:13:48.226Z,1.82
2019-04-14T15:16:09.056Z,1.40
2019-04-14T15:18:37.453Z,2.63
2019-04-14T15:21:09.078Z,2.35
2019-04-14T15:23:38.900Z,1.70
2019-04-14T15:26:07.249Z,1.57
2019-04-14T15:28:35.633Z,1.70
2019-04-14T15:31:04.130Z,1.57
2019-04-14T15:33:32.704Z,11.97
2019-04-14T15:36:01.355Z,1.95
2019-04-14T15:38:35.078Z,1.47
2019-04-14T15:41:09.490Z,1.40
2019-04-14T15:43:41.668Z,2.92
2019-04-14T15:46:10.064Z,1.85
2019-04-14T15:48:42.606Z,1.80
2019-04-14T15:51:12.766Z,2.92
2019-04-14T15:53:44.944Z,1.35
2019-04-14T15:56:15.011Z,1.17
2019-04-14T15:58:58.259Z,1.72
2019-04-14T16:01:35.423Z,1.32
2019-04-14T16:04:08.139Z,1.83
2019-04-14T16:06:40.634Z,1.50
2019-04-14T16:11:53.873Z,1.23
2019-04-14T16:14:25.961Z,2.17
2019-04-14T16:17:02.011Z,1.77
2019-04-14T16:19:46.776Z,1.62
2019-04-14T16:22:15.150Z,1.60
2019-04-14T16:24:45.210Z,1.57
2019-04-14T16:27:31.692Z,1.40
2019-04-14T16:30:07.646Z,2.03
2019-04-14T16:32:37.662Z,1.45
2019-04-14T16:35:11.918Z,3.15
2019-04-14T16:37:40.282Z,1.37
2019-04-14T16:40:08.643Z,3.27
2019-04-14T16:42:37.049Z,1.60
2019-04-14T16:45:06.185Z,1.30
2019-04-14T16:47:36.211Z,3.05
2019-04-14T16:50:05.361Z,3.08
2019-04-14T16:52:38.417Z,4.12
2019-04-14T16:55:23.101Z,2.67
2019-04-14T16:57:53.141Z,1.77
2019-04-14T17:00:23.156Z,3.00
2019-04-14T17:02:51.590Z,1.73
2019-04-14T17:05:19.970Z,2.95
2019-04-14T17:07:48.406Z,3.67
2019-04-14T17:10:16.911Z,1.62
2019-04-14T17:12:45.266Z,4.00
2019-04-14T17:15:22.673Z,1.52
2019-04-14T17:18:09.222Z,2.10
2019-04-14T17:20:43.166Z,2.87
2019-04-14T17:23:22.133Z,2.87
2019-04-14T17:25:52.154Z,3.80
2019-04-14T17:28:22.158Z,3.60
2019-04-14T17:30:52.216Z,2.10
2019-04-14T17:33:26.906Z,2.02
2019-04-14T17:36:12.318Z,2.80
2019-04-14T17:38:43.399Z,2.42
2019-04-14T17:41:29.630Z,4.03
2019-04-14T17:43:59.649Z,2.90
2019-04-14T17:46:31.173Z,2.58
2019-04-14T17:49:01.213Z,1.90
2019-04-14T17:51:47.411Z,1.72
2019-04-14T17:54:29.178Z,2.22
2019-04-14T17:57:00.794Z,3.45
2019-04-14T17:59:33.812Z,2.10
2019-04-14T18:02:10.104Z,1.97
2019-04-14T18:04:41.019Z,2.55
2019-04-14T18:07:13.777Z,2.42
2019-04-14T18:09:46.525Z,3.27
2019-04-14T18:12:19.265Z,2.45
2019-04-14T18:14:53.271Z,4.37
2019-04-14T18:17:26.015Z,5.20
2019-04-14T18:19:56.852Z,2.65
2019-04-14T18:22:25.385Z,3.15
2019-04-14T18:24:53.846Z,1.95
2019-04-14T18:27:22.235Z,2.37
2019-04-14T18:29:57.893Z,2.75
2019-04-14T18:32:30.606Z,2.60
2019-04-14T18:35:09.845Z,3.90
2019-04-14T18:37:47.819Z,4.42
2019-04-14T18:40:17.820Z,4.30
2019-04-14T18:43:04.374Z,2.47
2019-04-14T18:45:34.408Z,5.20
2019-04-14T18:48:13.406Z,3.05
2019-04-14T18:50:52.514Z,2.80
2019-04-14T18:53:28.586Z,4.00
2019-04-14T18:55:58.635Z,3.27
2019-04-14T18:58:44.674Z,5.33
2019-04-14T19:01:20.535Z,3.12
2019-04-14T19:03:48.930Z,2.33
2019-04-14T19:06:17.397Z,2.67
2019-04-14T19:08:45.779Z,2.10
2019-04-14T19:11:15.833Z,2.13
2019-04-14T19:14:02.157Z,3.40
2019-04-14T19:16:44.283Z,3.05
2019-04-14T19:21:37.219Z,2.45
2019-04-14T19:24:05.601Z,6.80
2019-04-14T19:26:34.006Z,3.02
2019-04-14T19:29:02.374Z,4.03
2019-04-14T19:31:30.754Z,3.55
2019-04-14T19:33:59.349Z,4.45
2019-04-14T19:36:27.839Z,5.12
2019-04-14T19:38:56.204Z,6.40
2019-04-14T19:41:27.442Z,5.17
2019-04-14T19:43:55.898Z,6.05
2019-04-14T19:46:24.218Z,5.13
2019-04-14T19:48:52.618Z,3.98
2019-04-14T19:51:21.202Z,3.96
2019-04-14T19:53:49.584Z,6.83
2019-04-14T19:56:17.980Z,12.63
2019-04-14T19:58:46.368Z,10.67
2019-04-14T20:01:14.732Z,14.10
2019-04-14T20:03:43.102Z,12.40
2019-04-14T20:06:11.534Z,16.95
2019-04-14T20:08:39.827Z,15.23
2019-04-14T20:11:08.270Z,14.03
2019-04-14T20:13:40.884Z,15.23
2019-04-14T20:16:10.968Z,16.25
2019-04-14T20:18:56.033Z,17.35
2019-04-14T20:21:28.558Z,17.67
2019-04-14T20:24:07.254Z,19.95
2019-04-14T20:26:40.249Z,20.43
2019-04-14T20:29:13.209Z,19.27
2019-04-14T20:31:59.801Z,13.20
2019-04-14T20:34:28.362Z,11.70
2019-04-14T20:36:56.743Z,17.27
2019-04-14T20:39:26.895Z,11.33
2019-04-14T20:41:55.278Z,10.68
2019-04-14T20:44:23.702Z,11.57
2019-04-14T20:46:52.081Z,12.78
2019-04-14T20:49:20.486Z,16.40
2019-04-14T20:51:48.861Z,23.00
2019-04-14T20:54:18.152Z,27.98
2019-04-14T20:56:46.484Z,22.98
2019-04-14T20:59:14.894Z,20.00
2019-04-14T21:01:44.978Z,21.62
2019-04-14T21:04:27.034Z,16.60
2019-04-14T21:09:48.733Z,14.68
2019-04-14T21:12:35.086Z,10.28
2019-04-14T21:15:07.839Z,9.55
2019-04-14T21:17:37.996Z,6.50
2019-04-14T21:20:10.860Z,6.92
2019-04-14T21:22:57.478Z,8.35
2019-04-14T21:25:33.312Z,5.65
2019-04-14T21:28:03.363Z,9.15
2019-04-14T21:30:33.390Z,5.72
2019-04-14T21:33:12.622Z,9.25
2019-04-14T21:35:54.622Z,7.72
2019-04-14T21:38:41.301Z,9.10
2019-04-14T21:41:11.422Z,8.20
2019-04-14T21:43:39.830Z,8.93
2019-04-14T21:46:09.123Z,9.08
2019-04-14T21:48:37.505Z,7.58
2019-04-14T21:51:05.837Z,7.15
2019-04-14T21:53:34.541Z,8.28
2019-04-14T21:56:12.807Z,7.12
2019-04-14T21:58:37.069Z,6.92
2019-04-14T22:01:26.430Z,10.15
2019-04-14T22:04:12.933Z,6.25
2019-04-14T22:06:51.989Z,5.23
2019-04-14T22:09:33.818Z,9.00
2019-04-14T22:12:03.817Z,6.77
2019-04-14T22:14:33.195Z,6.95
2019-04-14T22:17:01.646Z,10.72
2019-04-14T22:19:30.506Z,13.15
2019-04-14T22:21:58.818Z,9.18
2019-04-14T22:24:27.250Z,13.03
2019-04-14T22:26:55.710Z,7.23
2019-04-14T22:29:24.090Z,10.05
2019-04-14T22:31:52.524Z,7.25
2019-04-14T22:34:21.058Z,9.00
2019-04-14T22:36:49.576Z,6.03
2019-04-14T22:39:18.398Z,7.55
2019-04-14T22:41:46.923Z,9.35
2019-04-14T22:44:15.368Z,9.27
2019-04-14T22:46:43.750Z,13.28
2019-04-14T22:49:12.335Z,9.10
2019-04-14T22:51:40.801Z,7.65
2019-04-14T22:54:10.381Z,9.03
2019-04-14T22:56:39.794Z,5.92
2019-04-14T22:59:08.301Z,7.85
2019-04-14T23:01:38.423Z,6.42
2019-04-14T23:04:24.693Z,5.70
2019-04-14T23:07:06.784Z,7.20
2019-04-14T23:09:36.806Z,7.22
2019-04-14T23:12:23.094Z,7.80
2019-04-14T23:15:09.286Z,6.58
2019-04-14T23:17:39.338Z,7.83
2019-04-14T23:20:18.264Z,7.37
2019-04-14T23:22:48.348Z,5.90
2019-04-14T23:25:16.731Z,6.22
2019-04-14T23:27:45.159Z,7.12
2019-04-14T23:30:13.702Z,7.72
2019-04-14T23:32:42.075Z,8.70
2019-04-14T23:35:10.518Z,10.53
2019-04-14T23:37:38.828Z,7.45
2019-04-14T23:40:07.515Z,7.90
2019-04-14T23:42:35.809Z,9.25
2019-04-14T23:45:07.095Z,10.65
2019-04-14T23:47:35.457Z,7.83
2019-04-14T23:50:06.380Z,9.10
2019-04-14T23:52:34.703Z,6.92
2019-04-14T23:55:03.455Z,9.98
2019-04-14T23:57:31.895Z,7.83
